sensor_id;sensor_type;location;lat;lon;timestamp;P1;durP1;ratioP1;P2;durP2;ratioP2
55455;SDS011;63021;52.836;6.376;2024-02-15T00:01:57;47.50;;;22.00;;
55455;SDS011;63021;52.836;6.376;2024-02-15T00:04:22;44.55;;;21.48;;
55455;SDS011;63021;52.836;6.376;2024-02-15T00:06:47;47.00;;;22.15;;
55455;SDS011;63021;52.836;6.376;2024-02-15T00:09:13;54.17;;;22.08;;
55455;SDS011;63021;52.836;6.376;2024-02-15T00:11:38;45.80;;;20.33;;
55455;SDS011;63021;52.836;6.376;2024-02-15T00:14:04;45.90;;;21.88;;
55455;SDS011;63021;52.836;6.376;2024-02-15T00:16:30;50.30;;;22.35;;
55455;SDS011;63021;52.836;6.376;2024-02-15T00:18:55;45.30;;;19.77;;
55455;SDS011;63021;52.836;6.376;2024-02-15T00:21:21;41.83;;;20.88;;
55455;SDS011;63021;52.836;6.376;2024-02-15T00:23:48;47.20;;;19.85;;
55455;SDS011;63021;52.836;6.376;2024-02-15T00:26:13;46.03;;;20.02;;
55455;SDS011;63021;52.836;6.376;2024-02-15T00:28:40;43.08;;;19.55;;
55455;SDS011;63021;52.836;6.376;2024-02-15T00:31:06;34.40;;;18.85;;
55455;SDS011;63021;52.836;6.376;2024-02-15T00:33:33;38.90;;;17.75;;
55455;SDS011;63021;52.836;6.376;2024-02-15T00:35:58;41.58;;;18.48;;
55455;SDS011;63021;52.836;6.376;2024-02-15T00:38:24;37.25;;;16.52;;
55455;SDS011;63021;52.836;6.376;2024-02-15T00:40:49;36.45;;;17.33;;
55455;SDS011;63021;52.836;6.376;2024-02-15T00:43:14;36.60;;;16.73;;
55455;SDS011;63021;52.836;6.376;2024-02-15T00:45:40;38.25;;;16.85;;
55455;SDS011;63021;52.836;6.376;2024-02-15T00:48:06;39.28;;;16.70;;
55455;SDS011;63021;52.836;6.376;2024-02-15T00:50:38;34.60;;;18.05;;
55455;SDS011;63021;52.836;6.376;2024-02-15T00:53:03;41.38;;;15.95;;
55455;SDS011;63021;52.836;6.376;2024-02-15T00:55:29;38.38;;;17.48;;
55455;SDS011;63021;52.836;6.376;2024-02-15T00:57:55;36.55;;;16.27;;
55455;SDS011;63021;52.836;6.376;2024-02-15T01:00:20;40.53;;;17.52;;
55455;SDS011;63021;52.836;6.376;2024-02-15T01:02:46;42.75;;;15.65;;
55455;SDS011;63021;52.836;6.376;2024-02-15T01:05:11;32.70;;;15.10;;
55455;SDS011;63021;52.836;6.376;2024-02-15T01:07:40;30.48;;;15.95;;
55455;SDS011;63021;52.836;6.376;2024-02-15T01:10:06;40.60;;;18.23;;
55455;SDS011;63021;52.836;6.376;2024-02-15T01:12:32;37.28;;;18.00;;
55455;SDS011;63021;52.836;6.376;2024-02-15T01:14:58;43.17;;;16.98;;
55455;SDS011;63021;52.836;6.376;2024-02-15T01:17:24;30.67;;;16.83;;
55455;SDS011;63021;52.836;6.376;2024-02-15T01:19:49;41.10;;;17.63;;
55455;SDS011;63021;52.836;6.376;2024-02-15T01:22:14;37.47;;;18.15;;
55455;SDS011;63021;52.836;6.376;2024-02-15T01:24:40;41.28;;;18.20;;
55455;SDS011;63021;52.836;6.376;2024-02-15T01:27:06;43.58;;;17.65;;
55455;SDS011;63021;52.836;6.376;2024-02-15T01:29:32;46.20;;;17.60;;
55455;SDS011;63021;52.836;6.376;2024-02-15T01:31:57;50.58;;;19.05;;
55455;SDS011;63021;52.836;6.376;2024-02-15T01:34:22;38.83;;;17.67;;
55455;SDS011;63021;52.836;6.376;2024-02-15T01:36:48;47.50;;;16.73;;
55455;SDS011;63021;52.836;6.376;2024-02-15T01:39:15;41.20;;;18.27;;
55455;SDS011;63021;52.836;6.376;2024-02-15T01:41:45;42.50;;;16.98;;
55455;SDS011;63021;52.836;6.376;2024-02-15T01:44:13;41.40;;;17.02;;
55455;SDS011;63021;52.836;6.376;2024-02-15T01:46:38;44.75;;;17.15;;
55455;SDS011;63021;52.836;6.376;2024-02-15T01:49:04;56.35;;;17.42;;
55455;SDS011;63021;52.836;6.376;2024-02-15T01:51:30;43.92;;;16.65;;
55455;SDS011;63021;52.836;6.376;2024-02-15T01:53:57;42.15;;;15.30;;
55455;SDS011;63021;52.836;6.376;2024-02-15T01:56:24;38.25;;;14.43;;
55455;SDS011;63021;52.836;6.376;2024-02-15T01:58:51;36.15;;;16.00;;
55455;SDS011;63021;52.836;6.376;2024-02-15T02:01:16;43.58;;;15.07;;
55455;SDS011;63021;52.836;6.376;2024-02-15T02:03:42;36.60;;;13.40;;
55455;SDS011;63021;52.836;6.376;2024-02-15T02:06:09;29.02;;;12.85;;
55455;SDS011;63021;52.836;6.376;2024-02-15T02:08:34;39.30;;;12.98;;
55455;SDS011;63021;52.836;6.376;2024-02-15T02:10:59;29.23;;;11.13;;
55455;SDS011;63021;52.836;6.376;2024-02-15T02:13:26;23.25;;;12.00;;
55455;SDS011;63021;52.836;6.376;2024-02-15T02:15:52;30.25;;;11.90;;
55455;SDS011;63021;52.836;6.376;2024-02-15T02:18:18;27.77;;;11.45;;
55455;SDS011;63021;52.836;6.376;2024-02-15T02:20:43;26.73;;;11.88;;
55455;SDS011;63021;52.836;6.376;2024-02-15T02:23:14;27.05;;;10.07;;
55455;SDS011;63021;52.836;6.376;2024-02-15T02:25:41;31.67;;;10.55;;
55455;SDS011;63021;52.836;6.376;2024-02-15T02:28:08;29.05;;;10.77;;
55455;SDS011;63021;52.836;6.376;2024-02-15T02:30:33;31.67;;;9.07;;
55455;SDS011;63021;52.836;6.376;2024-02-15T02:32:59;31.95;;;10.75;;
55455;SDS011;63021;52.836;6.376;2024-02-15T02:35:26;34.75;;;9.75;;
55455;SDS011;63021;52.836;6.376;2024-02-15T02:37:55;23.75;;;10.50;;
55455;SDS011;63021;52.836;6.376;2024-02-15T02:40:22;26.75;;;12.93;;
55455;SDS011;63021;52.836;6.376;2024-02-15T02:45:13;32.35;;;12.55;;
55455;SDS011;63021;52.836;6.376;2024-02-15T02:47:38;27.33;;;12.55;;
55455;SDS011;63021;52.836;6.376;2024-02-15T02:50:04;31.80;;;12.93;;
55455;SDS011;63021;52.836;6.376;2024-02-15T02:52:30;28.05;;;12.35;;
55455;SDS011;63021;52.836;6.376;2024-02-15T02:54:55;30.17;;;13.70;;
55455;SDS011;63021;52.836;6.376;2024-02-15T02:57:21;33.40;;;13.35;;
55455;SDS011;63021;52.836;6.376;2024-02-15T02:59:46;30.30;;;13.15;;
55455;SDS011;63021;52.836;6.376;2024-02-15T03:02:12;37.53;;;14.00;;
55455;SDS011;63021;52.836;6.376;2024-02-15T03:04:38;36.60;;;14.10;;
55455;SDS011;63021;52.836;6.376;2024-02-15T03:07:05;28.08;;;14.00;;
55455;SDS011;63021;52.836;6.376;2024-02-15T03:09:30;29.25;;;13.30;;
55455;SDS011;63021;52.836;6.376;2024-02-15T03:11:56;31.02;;;14.77;;
55455;SDS011;63021;52.836;6.376;2024-02-15T03:14:22;35.13;;;14.25;;
55455;SDS011;63021;52.836;6.376;2024-02-15T03:16:47;33.92;;;15.68;;
55455;SDS011;63021;52.836;6.376;2024-02-15T03:19:12;42.97;;;17.17;;
55455;SDS011;63021;52.836;6.376;2024-02-15T03:21:38;33.40;;;14.73;;
55455;SDS011;63021;52.836;6.376;2024-02-15T03:24:03;31.77;;;15.15;;
55455;SDS011;63021;52.836;6.376;2024-02-15T03:26:32;31.75;;;15.82;;
55455;SDS011;63021;52.836;6.376;2024-02-15T03:29:01;31.20;;;16.10;;
55455;SDS011;63021;52.836;6.376;2024-02-15T03:31:28;35.05;;;15.88;;
55455;SDS011;63021;52.836;6.376;2024-02-15T03:33:53;38.47;;;16.65;;
55455;SDS011;63021;52.836;6.376;2024-02-15T03:36:19;31.80;;;16.83;;
55455;SDS011;63021;52.836;6.376;2024-02-15T03:38:45;35.13;;;15.35;;
55455;SDS011;63021;52.836;6.376;2024-02-15T03:41:11;31.88;;;16.02;;
55455;SDS011;63021;52.836;6.376;2024-02-15T03:43:37;24.48;;;15.27;;
55455;SDS011;63021;52.836;6.376;2024-02-15T03:46:03;35.72;;;17.23;;
55455;SDS011;63021;52.836;6.376;2024-02-15T03:48:29;31.33;;;16.88;;
55455;SDS011;63021;52.836;6.376;2024-02-15T03:50:55;24.92;;;15.35;;
55455;SDS011;63021;52.836;6.376;2024-02-15T03:53:21;39.42;;;18.02;;
55455;SDS011;63021;52.836;6.376;2024-02-15T03:55:47;34.20;;;17.85;;
55455;SDS011;63021;52.836;6.376;2024-02-15T03:58:12;33.53;;;16.13;;
55455;SDS011;63021;52.836;6.376;2024-02-15T04:00:39;31.20;;;16.38;;
55455;SDS011;63021;52.836;6.376;2024-02-15T04:03:05;31.48;;;17.20;;
55455;SDS011;63021;52.836;6.376;2024-02-15T04:05:31;32.75;;;18.55;;
55455;SDS011;63021;52.836;6.376;2024-02-15T04:07:56;30.75;;;16.98;;
55455;SDS011;63021;52.836;6.376;2024-02-15T04:10:21;38.35;;;18.35;;
55455;SDS011;63021;52.836;6.376;2024-02-15T04:12:48;37.53;;;17.80;;
55455;SDS011;63021;52.836;6.376;2024-02-15T04:15:13;29.23;;;18.02;;
55455;SDS011;63021;52.836;6.376;2024-02-15T04:17:40;38.65;;;19.27;;
55455;SDS011;63021;52.836;6.376;2024-02-15T04:20:08;28.80;;;17.40;;
55455;SDS011;63021;52.836;6.376;2024-02-15T04:22:34;34.75;;;17.15;;
55455;SDS011;63021;52.836;6.376;2024-02-15T04:25:06;27.58;;;16.33;;
55455;SDS011;63021;52.836;6.376;2024-02-15T04:27:33;28.25;;;16.45;;
55455;SDS011;63021;52.836;6.376;2024-02-15T04:29:59;33.08;;;16.13;;
55455;SDS011;63021;52.836;6.376;2024-02-15T04:32:24;30.30;;;17.02;;
55455;SDS011;63021;52.836;6.376;2024-02-15T04:34:49;38.50;;;17.77;;
55455;SDS011;63021;52.836;6.376;2024-02-15T04:37:15;34.35;;;17.67;;
55455;SDS011;63021;52.836;6.376;2024-02-15T04:39:42;32.17;;;18.98;;
55455;SDS011;63021;52.836;6.376;2024-02-15T04:42:07;36.33;;;18.55;;
55455;SDS011;63021;52.836;6.376;2024-02-15T04:44:36;38.70;;;20.17;;
55455;SDS011;63021;52.836;6.376;2024-02-15T04:47:04;37.45;;;18.70;;
55455;SDS011;63021;52.836;6.376;2024-02-15T04:49:30;35.33;;;18.13;;
55455;SDS011;63021;52.836;6.376;2024-02-15T04:51:55;41.70;;;20.10;;
55455;SDS011;63021;52.836;6.376;2024-02-15T04:54:22;37.30;;;20.73;;
55455;SDS011;63021;52.836;6.376;2024-02-15T04:56:48;36.60;;;20.90;;
55455;SDS011;63021;52.836;6.376;2024-02-15T04:59:15;37.72;;;21.98;;
55455;SDS011;63021;52.836;6.376;2024-02-15T05:01:41;33.15;;;20.10;;
55455;SDS011;63021;52.836;6.376;2024-02-15T05:04:10;37.90;;;22.25;;
55455;SDS011;63021;52.836;6.376;2024-02-15T05:06:36;36.95;;;21.17;;
55455;SDS011;63021;52.836;6.376;2024-02-15T05:09:05;39.95;;;21.30;;
55455;SDS011;63021;52.836;6.376;2024-02-15T05:11:36;41.20;;;22.27;;
55455;SDS011;63021;52.836;6.376;2024-02-15T05:14:02;40.67;;;22.23;;
55455;SDS011;63021;52.836;6.376;2024-02-15T05:16:31;41.38;;;22.55;;
55455;SDS011;63021;52.836;6.376;2024-02-15T05:18:57;38.92;;;23.98;;
55455;SDS011;63021;52.836;6.376;2024-02-15T05:21:22;36.13;;;22.88;;
55455;SDS011;63021;52.836;6.376;2024-02-15T05:23:48;42.17;;;24.15;;
55455;SDS011;63021;52.836;6.376;2024-02-15T05:26:13;38.35;;;23.52;;
55455;SDS011;63021;52.836;6.376;2024-02-15T05:28:41;48.65;;;24.48;;
55455;SDS011;63021;52.836;6.376;2024-02-15T05:33:47;44.58;;;25.70;;
55455;SDS011;63021;52.836;6.376;2024-02-15T05:36:13;48.50;;;25.33;;
55455;SDS011;63021;52.836;6.376;2024-02-15T05:38:39;44.40;;;25.08;;
55455;SDS011;63021;52.836;6.376;2024-02-15T05:41:05;41.33;;;24.80;;
55455;SDS011;63021;52.836;6.376;2024-02-15T05:43:33;40.05;;;26.17;;
55455;SDS011;63021;52.836;6.376;2024-02-15T05:46:01;42.13;;;26.73;;
55455;SDS011;63021;52.836;6.376;2024-02-15T05:48:27;43.22;;;25.60;;
55455;SDS011;63021;52.836;6.376;2024-02-15T05:50:53;42.17;;;25.40;;
55455;SDS011;63021;52.836;6.376;2024-02-15T05:53:22;49.28;;;25.35;;
55455;SDS011;63021;52.836;6.376;2024-02-15T05:55:48;41.58;;;23.60;;
55455;SDS011;63021;52.836;6.376;2024-02-15T05:58:14;39.45;;;24.30;;
55455;SDS011;63021;52.836;6.376;2024-02-15T06:00:40;42.80;;;24.80;;
55455;SDS011;63021;52.836;6.376;2024-02-15T06:03:06;43.63;;;24.42;;
55455;SDS011;63021;52.836;6.376;2024-02-15T06:05:34;46.65;;;25.45;;
55455;SDS011;63021;52.836;6.376;2024-02-15T06:07:59;37.55;;;23.45;;
55455;SDS011;63021;52.836;6.376;2024-02-15T06:10:25;41.10;;;23.35;;
55455;SDS011;63021;52.836;6.376;2024-02-15T06:12:50;36.35;;;22.98;;
55455;SDS011;63021;52.836;6.376;2024-02-15T06:15:16;40.42;;;23.45;;
55455;SDS011;63021;52.836;6.376;2024-02-15T06:17:42;38.25;;;22.08;;
55455;SDS011;63021;52.836;6.376;2024-02-15T06:20:11;33.20;;;21.90;;
55455;SDS011;63021;52.836;6.376;2024-02-15T06:22:39;42.83;;;21.70;;
55455;SDS011;63021;52.836;6.376;2024-02-15T06:25:05;37.03;;;21.17;;
55455;SDS011;63021;52.836;6.376;2024-02-15T06:27:30;30.00;;;20.35;;
55455;SDS011;63021;52.836;6.376;2024-02-15T06:29:57;40.22;;;19.60;;
55455;SDS011;63021;52.836;6.376;2024-02-15T06:32:41;35.42;;;20.15;;
55455;SDS011;63021;52.836;6.376;2024-02-15T06:35:25;36.25;;;18.65;;
55455;SDS011;63021;52.836;6.376;2024-02-15T06:38:09;31.48;;;20.08;;
55455;SDS011;63021;52.836;6.376;2024-02-15T06:40:53;34.92;;;18.75;;
55455;SDS011;63021;52.836;6.376;2024-02-15T06:43:19;36.85;;;19.73;;
55455;SDS011;63021;52.836;6.376;2024-02-15T06:45:44;31.05;;;18.50;;
55455;SDS011;63021;52.836;6.376;2024-02-15T06:48:11;35.53;;;17.80;;
55455;SDS011;63021;52.836;6.376;2024-02-15T06:50:37;29.60;;;16.77;;
55455;SDS011;63021;52.836;6.376;2024-02-15T06:53:04;30.67;;;18.42;;
55455;SDS011;63021;52.836;6.376;2024-02-15T06:55:30;36.53;;;17.30;;
55455;SDS011;63021;52.836;6.376;2024-02-15T06:57:55;29.70;;;17.55;;
55455;SDS011;63021;52.836;6.376;2024-02-15T07:00:21;29.35;;;16.40;;
55455;SDS011;63021;52.836;6.376;2024-02-15T07:02:47;35.15;;;16.90;;
55455;SDS011;63021;52.836;6.376;2024-02-15T07:05:13;33.08;;;17.35;;
55455;SDS011;63021;52.836;6.376;2024-02-15T07:07:38;29.02;;;15.48;;
55455;SDS011;63021;52.836;6.376;2024-02-15T07:10:04;33.10;;;16.58;;
55455;SDS011;63021;52.836;6.376;2024-02-15T07:12:31;37.72;;;16.48;;
55455;SDS011;63021;52.836;6.376;2024-02-15T07:14:57;29.63;;;17.10;;
55455;SDS011;63021;52.836;6.376;2024-02-15T07:17:22;34.30;;;16.40;;
55455;SDS011;63021;52.836;6.376;2024-02-15T07:19:48;32.15;;;16.17;;
55455;SDS011;63021;52.836;6.376;2024-02-15T07:22:16;27.80;;;15.65;;
55455;SDS011;63021;52.836;6.376;2024-02-15T07:24:41;25.58;;;15.77;;
55455;SDS011;63021;52.836;6.376;2024-02-15T07:27:07;22.02;;;15.18;;
55455;SDS011;63021;52.836;6.376;2024-02-15T07:29:33;32.40;;;15.77;;
55455;SDS011;63021;52.836;6.376;2024-02-15T07:32:05;28.77;;;15.15;;
55455;SDS011;63021;52.836;6.376;2024-02-15T07:34:31;28.73;;;14.63;;
55455;SDS011;63021;52.836;6.376;2024-02-15T07:36:57;23.48;;;14.60;;
55455;SDS011;63021;52.836;6.376;2024-02-15T07:39:23;24.42;;;15.32;;
55455;SDS011;63021;52.836;6.376;2024-02-15T07:41:50;26.73;;;14.68;;
55455;SDS011;63021;52.836;6.376;2024-02-15T07:44:23;27.50;;;15.68;;
55455;SDS011;63021;52.836;6.376;2024-02-15T07:46:49;27.90;;;16.35;;
55455;SDS011;63021;52.836;6.376;2024-02-15T07:49:15;25.58;;;15.75;;
55455;SDS011;63021;52.836;6.376;2024-02-15T07:51:42;25.75;;;15.18;;
55455;SDS011;63021;52.836;6.376;2024-02-15T07:54:09;24.48;;;14.75;;
55455;SDS011;63021;52.836;6.376;2024-02-15T07:56:35;27.13;;;15.38;;
55455;SDS011;63021;52.836;6.376;2024-02-15T07:59:01;23.58;;;13.43;;
55455;SDS011;63021;52.836;6.376;2024-02-15T08:01:27;22.77;;;13.93;;
55455;SDS011;63021;52.836;6.376;2024-02-15T08:03:54;19.05;;;13.13;;
55455;SDS011;63021;52.836;6.376;2024-02-15T08:06:19;23.42;;;13.50;;
55455;SDS011;63021;52.836;6.376;2024-02-15T08:08:46;21.35;;;13.70;;
55455;SDS011;63021;52.836;6.376;2024-02-15T08:11:15;25.05;;;13.48;;
55455;SDS011;63021;52.836;6.376;2024-02-15T08:13:44;24.83;;;15.27;;
55455;SDS011;63021;52.836;6.376;2024-02-15T08:16:10;20.40;;;14.25;;
55455;SDS011;63021;52.836;6.376;2024-02-15T08:18:37;23.50;;;13.50;;
55455;SDS011;63021;52.836;6.376;2024-02-15T08:21:04;19.95;;;12.88;;
55455;SDS011;63021;52.836;6.376;2024-02-15T08:23:30;22.80;;;13.65;;
55455;SDS011;63021;52.836;6.376;2024-02-15T08:25:55;18.20;;;13.38;;
55455;SDS011;63021;52.836;6.376;2024-02-15T08:28:22;21.75;;;13.00;;
55455;SDS011;63021;52.836;6.376;2024-02-15T08:30:48;20.27;;;12.73;;
55455;SDS011;63021;52.836;6.376;2024-02-15T08:33:13;20.98;;;13.27;;
55455;SDS011;63021;52.836;6.376;2024-02-15T08:35:39;21.33;;;12.95;;
55455;SDS011;63021;52.836;6.376;2024-02-15T08:38:06;23.83;;;13.75;;
55455;SDS011;63021;52.836;6.376;2024-02-15T08:40:31;19.33;;;13.10;;
55455;SDS011;63021;52.836;6.376;2024-02-15T08:42:57;20.25;;;13.20;;
55455;SDS011;63021;52.836;6.376;2024-02-15T08:45:22;22.20;;;12.98;;
55455;SDS011;63021;52.836;6.376;2024-02-15T08:47:48;17.27;;;12.35;;
55455;SDS011;63021;52.836;6.376;2024-02-15T08:50:17;21.98;;;13.27;;
55455;SDS011;63021;52.836;6.376;2024-02-15T08:52:44;18.50;;;13.23;;
55455;SDS011;63021;52.836;6.376;2024-02-15T08:55:10;17.85;;;12.60;;
55455;SDS011;63021;52.836;6.376;2024-02-15T08:57:39;20.95;;;12.27;;
55455;SDS011;63021;52.836;6.376;2024-02-15T09:00:06;21.38;;;12.13;;
55455;SDS011;63021;52.836;6.376;2024-02-15T09:02:38;16.80;;;12.35;;
55455;SDS011;63021;52.836;6.376;2024-02-15T09:05:03;18.75;;;12.32;;
55455;SDS011;63021;52.836;6.376;2024-02-15T09:07:29;21.35;;;13.10;;
55455;SDS011;63021;52.836;6.376;2024-02-15T09:09:55;20.70;;;13.02;;
55455;SDS011;63021;52.836;6.376;2024-02-15T09:12:21;17.73;;;12.80;;
55455;SDS011;63021;52.836;6.376;2024-02-15T09:14:47;18.73;;;11.75;;
55455;SDS011;63021;52.836;6.376;2024-02-15T09:17:13;18.40;;;13.18;;
55455;SDS011;63021;52.836;6.376;2024-02-15T09:19:39;15.05;;;12.07;;
55455;SDS011;63021;52.836;6.376;2024-02-15T09:22:04;19.92;;;12.02;;
55455;SDS011;63021;52.836;6.376;2024-02-15T09:24:30;17.67;;;12.35;;
55455;SDS011;63021;52.836;6.376;2024-02-15T09:26:55;13.73;;;11.10;;
55455;SDS011;63021;52.836;6.376;2024-02-15T09:29:21;14.52;;;11.65;;
55455;SDS011;63021;52.836;6.376;2024-02-15T09:31:47;16.73;;;10.48;;
55455;SDS011;63021;52.836;6.376;2024-02-15T09:34:12;13.05;;;11.30;;
55455;SDS011;63021;52.836;6.376;2024-02-15T09:36:38;16.10;;;10.93;;
55455;SDS011;63021;52.836;6.376;2024-02-15T09:39:04;15.48;;;10.90;;
55455;SDS011;63021;52.836;6.376;2024-02-15T09:41:29;13.00;;;10.13;;
55455;SDS011;63021;52.836;6.376;2024-02-15T09:43:55;15.77;;;10.18;;
55455;SDS011;63021;52.836;6.376;2024-02-15T09:46:21;12.65;;;9.65;;
55455;SDS011;63021;52.836;6.376;2024-02-15T09:48:49;15.50;;;10.05;;
55455;SDS011;63021;52.836;6.376;2024-02-15T09:51:17;11.98;;;9.98;;
55455;SDS011;63021;52.836;6.376;2024-02-15T09:53:43;13.70;;;10.40;;
55455;SDS011;63021;52.836;6.376;2024-02-15T09:56:09;14.23;;;9.68;;
55455;SDS011;63021;52.836;6.376;2024-02-15T09:58:36;11.95;;;9.00;;
55455;SDS011;63021;52.836;6.376;2024-02-15T10:01:03;14.60;;;9.75;;
55455;SDS011;63021;52.836;6.376;2024-02-15T10:03:34;11.52;;;9.23;;
55455;SDS011;63021;52.836;6.376;2024-02-15T10:06:02;12.02;;;9.98;;
55455;SDS011;63021;52.836;6.376;2024-02-15T10:08:29;11.05;;;8.75;;
55455;SDS011;63021;52.836;6.376;2024-02-15T10:11:07;11.57;;;9.52;;
55455;SDS011;63021;52.836;6.376;2024-02-15T10:13:33;11.55;;;9.10;;
55455;SDS011;63021;52.836;6.376;2024-02-15T10:15:59;11.70;;;8.50;;
55455;SDS011;63021;52.836;6.376;2024-02-15T10:18:39;9.05;;;7.22;;
55455;SDS011;63021;52.836;6.376;2024-02-15T10:21:04;9.85;;;7.95;;
55455;SDS011;63021;52.836;6.376;2024-02-15T10:23:30;8.80;;;7.90;;
55455;SDS011;63021;52.836;6.376;2024-02-15T10:25:55;11.02;;;7.55;;
55455;SDS011;63021;52.836;6.376;2024-02-15T10:28:23;8.15;;;7.05;;
55455;SDS011;63021;52.836;6.376;2024-02-15T10:30:48;10.90;;;7.55;;
55455;SDS011;63021;52.836;6.376;2024-02-15T10:33:18;7.88;;;7.07;;
55455;SDS011;63021;52.836;6.376;2024-02-15T10:35:45;7.30;;;6.55;;
55455;SDS011;63021;52.836;6.376;2024-02-15T10:38:11;9.18;;;6.75;;
55455;SDS011;63021;52.836;6.376;2024-02-15T10:40:38;13.68;;;6.65;;
55455;SDS011;63021;52.836;6.376;2024-02-15T10:43:08;6.70;;;6.05;;
55455;SDS011;63021;52.836;6.376;2024-02-15T10:45:38;6.03;;;5.15;;
55455;SDS011;63021;52.836;6.376;2024-02-15T10:48:10;6.43;;;5.35;;
55455;SDS011;63021;52.836;6.376;2024-02-15T10:50:36;6.90;;;5.30;;
55455;SDS011;63021;52.836;6.376;2024-02-15T10:53:11;5.95;;;5.35;;
55455;SDS011;63021;52.836;6.376;2024-02-15T10:58:39;7.90;;;5.57;;
55455;SDS011;63021;52.836;6.376;2024-02-15T11:01:25;5.65;;;4.95;;
55455;SDS011;63021;52.836;6.376;2024-02-15T11:03:56;6.22;;;4.78;;
55455;SDS011;63021;52.836;6.376;2024-02-15T11:06:26;3.95;;;3.63;;
55455;SDS011;63021;52.836;6.376;2024-02-15T11:08:52;5.22;;;4.80;;
55455;SDS011;63021;52.836;6.376;2024-02-15T11:11:18;4.90;;;4.50;;
55455;SDS011;63021;52.836;6.376;2024-02-15T11:13:46;5.50;;;5.00;;
55455;SDS011;63021;52.836;6.376;2024-02-15T11:16:39;4.90;;;4.50;;
55455;SDS011;63021;52.836;6.376;2024-02-15T11:19:05;5.95;;;4.65;;
55455;SDS011;63021;52.836;6.376;2024-02-15T11:24:26;4.65;;;4.05;;
55455;SDS011;63021;52.836;6.376;2024-02-15T11:27:01;4.85;;;4.35;;
55455;SDS011;63021;52.836;6.376;2024-02-15T11:29:49;4.53;;;4.13;;
55455;SDS011;63021;52.836;6.376;2024-02-15T11:35:06;5.90;;;4.38;;
55455;SDS011;63021;52.836;6.376;2024-02-15T11:40:13;4.25;;;3.92;;
55455;SDS011;63021;52.836;6.376;2024-02-15T11:42:42;4.85;;;4.35;;
55455;SDS011;63021;52.836;6.376;2024-02-15T11:45:08;4.28;;;3.88;;
55455;SDS011;63021;52.836;6.376;2024-02-15T11:47:36;4.45;;;4.15;;
55455;SDS011;63021;52.836;6.376;2024-02-15T11:50:05;5.22;;;4.18;;
55455;SDS011;63021;52.836;6.376;2024-02-15T11:52:37;5.03;;;4.60;;
55455;SDS011;63021;52.836;6.376;2024-02-15T11:55:07;6.90;;;5.25;;
55455;SDS011;63021;52.836;6.376;2024-02-15T11:57:53;8.80;;;5.38;;
55455;SDS011;63021;52.836;6.376;2024-02-15T12:00:35;6.75;;;6.05;;
55455;SDS011;63021;52.836;6.376;2024-02-15T12:03:20;7.20;;;6.13;;
55455;SDS011;63021;52.836;6.376;2024-02-15T12:06:05;8.73;;;6.28;;
55455;SDS011;63021;52.836;6.376;2024-02-15T12:11:34;13.18;;;7.15;;
55455;SDS011;63021;52.836;6.376;2024-02-15T12:14:18;10.43;;;7.80;;
55455;SDS011;63021;52.836;6.376;2024-02-15T12:17:03;11.05;;;7.65;;
55455;SDS011;63021;52.836;6.376;2024-02-15T12:19:51;7.80;;;7.03;;
55455;SDS011;63021;52.836;6.376;2024-02-15T12:22:23;11.48;;;7.15;;
55455;SDS011;63021;52.836;6.376;2024-02-15T12:25:00;7.93;;;6.63;;
55455;SDS011;63021;52.836;6.376;2024-02-15T12:27:30;14.10;;;7.55;;
55455;SDS011;63021;52.836;6.376;2024-02-15T12:29:56;8.95;;;6.38;;
55455;SDS011;63021;52.836;6.376;2024-02-15T12:32:26;8.00;;;7.20;;
55455;SDS011;63021;52.836;6.376;2024-02-15T12:35:09;10.60;;;7.05;;
55455;SDS011;63021;52.836;6.376;2024-02-15T12:37:42;8.25;;;6.95;;
55455;SDS011;63021;52.836;6.376;2024-02-15T12:40:16;7.68;;;6.88;;
55455;SDS011;63021;52.836;6.376;2024-02-15T12:42:46;8.43;;;6.72;;
55455;SDS011;63021;52.836;6.376;2024-02-15T12:45:19;12.13;;;6.90;;
55455;SDS011;63021;52.836;6.376;2024-02-15T12:47:52;9.30;;;7.68;;
55455;SDS011;63021;52.836;6.376;2024-02-15T12:50:20;11.77;;;7.50;;
55455;SDS011;63021;52.836;6.376;2024-02-15T12:52:50;10.57;;;7.82;;
55455;SDS011;63021;52.836;6.376;2024-02-15T12:55:16;11.65;;;7.65;;
55455;SDS011;63021;52.836;6.376;2024-02-15T12:57:45;10.77;;;7.15;;
55455;SDS011;63021;52.836;6.376;2024-02-15T13:00:14;12.23;;;8.20;;
55455;SDS011;63021;52.836;6.376;2024-02-15T13:02:46;11.85;;;7.43;;
55455;SDS011;63021;52.836;6.376;2024-02-15T13:05:14;11.05;;;7.53;;
55455;SDS011;63021;52.836;6.376;2024-02-15T13:07:40;14.00;;;7.93;;
55455;SDS011;63021;52.836;6.376;2024-02-15T13:10:06;14.32;;;7.72;;
55455;SDS011;63021;52.836;6.376;2024-02-15T13:12:33;16.67;;;8.27;;
55455;SDS011;63021;52.836;6.376;2024-02-15T13:15:00;11.15;;;8.13;;
55455;SDS011;63021;52.836;6.376;2024-02-15T13:17:28;12.40;;;7.65;;
55455;SDS011;63021;52.836;6.376;2024-02-15T13:19:54;10.60;;;7.50;;
55455;SDS011;63021;52.836;6.376;2024-02-15T13:22:27;12.77;;;7.95;;
55455;SDS011;63021;52.836;6.376;2024-02-15T13:24:56;12.55;;;8.20;;
55455;SDS011;63021;52.836;6.376;2024-02-15T13:27:22;13.13;;;8.63;;
55455;SDS011;63021;52.836;6.376;2024-02-15T13:29:49;11.48;;;8.10;;
55455;SDS011;63021;52.836;6.376;2024-02-15T13:32:15;14.98;;;9.20;;
55455;SDS011;63021;52.836;6.376;2024-02-15T13:34:42;13.50;;;8.65;;
55455;SDS011;63021;52.836;6.376;2024-02-15T13:37:07;17.90;;;9.00;;
55455;SDS011;63021;52.836;6.376;2024-02-15T13:39:33;19.40;;;9.70;;
55455;SDS011;63021;52.836;6.376;2024-02-15T13:42:01;20.67;;;8.55;;
55455;SDS011;63021;52.836;6.376;2024-02-15T13:44:27;16.95;;;9.82;;
55455;SDS011;63021;52.836;6.376;2024-02-15T13:46:52;19.00;;;8.70;;
55455;SDS011;63021;52.836;6.376;2024-02-15T13:49:21;20.95;;;9.95;;
55455;SDS011;63021;52.836;6.376;2024-02-15T13:51:46;19.35;;;9.73;;
55455;SDS011;63021;52.836;6.376;2024-02-15T13:54:12;14.73;;;9.75;;
55455;SDS011;63021;52.836;6.376;2024-02-15T13:56:37;21.48;;;9.88;;
55455;SDS011;63021;52.836;6.376;2024-02-15T13:59:04;22.30;;;10.45;;
55455;SDS011;63021;52.836;6.376;2024-02-15T14:01:30;19.77;;;10.30;;
55455;SDS011;63021;52.836;6.376;2024-02-15T14:03:56;17.27;;;10.10;;
55455;SDS011;63021;52.836;6.376;2024-02-15T14:06:21;15.48;;;9.18;;
55455;SDS011;63021;52.836;6.376;2024-02-15T14:08:47;22.65;;;10.30;;
55455;SDS011;63021;52.836;6.376;2024-02-15T14:11:12;17.08;;;10.68;;
55455;SDS011;63021;52.836;6.376;2024-02-15T14:13:38;23.70;;;10.90;;
55455;SDS011;63021;52.836;6.376;2024-02-15T14:16:04;22.73;;;10.57;;
55455;SDS011;63021;52.836;6.376;2024-02-15T14:18:30;19.90;;;10.43;;
55455;SDS011;63021;52.836;6.376;2024-02-15T14:20:56;23.50;;;10.73;;
55455;SDS011;63021;52.836;6.376;2024-02-15T14:23:21;21.30;;;10.55;;
55455;SDS011;63021;52.836;6.376;2024-02-15T14:25:47;19.88;;;10.75;;
55455;SDS011;63021;52.836;6.376;2024-02-15T14:28:15;18.30;;;11.15;;
55455;SDS011;63021;52.836;6.376;2024-02-15T14:30:40;20.30;;;10.43;;
55455;SDS011;63021;52.836;6.376;2024-02-15T14:33:24;19.73;;;10.60;;
55455;SDS011;63021;52.836;6.376;2024-02-15T14:35:51;23.67;;;11.07;;
55455;SDS011;63021;52.836;6.376;2024-02-15T14:38:20;22.45;;;11.63;;
55455;SDS011;63021;52.836;6.376;2024-02-15T14:40:47;16.70;;;11.23;;
55455;SDS011;63021;52.836;6.376;2024-02-15T14:43:25;23.92;;;10.82;;
55455;SDS011;63021;52.836;6.376;2024-02-15T14:45:51;26.23;;;11.77;;
55455;SDS011;63021;52.836;6.376;2024-02-15T14:48:21;17.77;;;9.98;;